Time;durP1;ratioP1;P1;durP2;ratioP2;P2;SDS_P1;SDS_P2;PMS_P1;PMS_P2;Temp;Humidity;BMP_temperature;BMP_pressure;BME280_temperature;BME280_humidity;BME280_pressure;Samples;Min_cycle;Max_cycle;Signal;HPM_P1;HPM_P2
2021/11/07 00:02:17;;;;;;;4.32;2.80;;;9.20;99.90;;;;;;5066441;28;20100;-87
2021/11/07 00:04:10;;;;;;;6.35;2.47;;;9.20;99.90;;;;;;5061094;28;20126;-88
2021/11/07 00:06:38;;;;;;;5.40;3.33;;;9.20;99.90;;;;;;5046376;28;20041;-86
2021/11/07 00:11:36;;;;;;;6.13;3.45;;;9.20;99.90;;;;;;5046306;28;20478;-87
2021/11/07 00:14:05;;;;;;;5.03;3.42;;;9.10;99.90;;;;;;5046019;28;20042;-87
2021/11/07 00:16:34;;;;;;;9.85;4.82;;;9.10;99.90;;;;;;5029504;28;20084;-87
2021/11/07 00:19:12;;;;;;;7.35;4.72;;;9.10;99.90;;;;;;5045953;28;20545;-86
2021/11/07 00:21:45;;;;;;;6.57;4.22;;;9.10;99.90;;;;;;5045761;28;20057;-86
2021/11/07 00:24:16;;;;;;;8.82;4.35;;;9.10;99.90;;;;;;5029526;28;20161;-87
2021/11/07 00:29:31;;;;;;;5.25;3.70;;;9.10;99.90;;;;;;5029313;28;20041;-86
2021/11/07 00:32:08;;;;;;;5.25;3.67;;;9.10;99.90;;;;;;5045640;28;20044;-85
2021/11/07 00:37:08;;;;;;;4.75;3.63;;;9.10;99.90;;;;;;5029362;28;20068;-87
2021/11/07 00:39:46;;;;;;;4.05;2.95;;;9.20;99.90;;;;;;5045702;28;20069;-87
2021/11/07 00:42:27;;;;;;;5.05;2.88;;;9.20;99.90;;;;;;5028989;28;20037;-89
2021/11/07 00:44:56;;;;;;;4.10;3.67;;;9.20;99.90;;;;;;5047070;28;20038;-90
2021/11/07 00:50:08;;;;;;;6.40;3.97;;;9.20;99.90;;;;;;5049059;28;20048;-86
2021/11/07 01:00:08;;;;;;;7.70;4.60;;;9.30;99.90;;;;;;5066905;28;20033;-86
2021/11/07 01:02:37;;;;;;;4.38;3.80;;;9.30;99.90;;;;;;5048510;28;20041;-87
2021/11/07 01:05:22;;;;;;;4.75;4.30;;;9.30;99.90;;;;;;5073200;28;20040;-86
2021/11/07 01:07:47;;;;;;;6.80;4.60;;;9.30;99.90;;;;;;5085637;28;20295;-85
2021/11/07 01:10:13;;;;;;;5.90;5.05;;;9.30;99.90;;;;;;5086742;28;20302;-88
2021/11/07 01:12:39;;;;;;;7.00;5.28;;;9.40;99.90;;;;;;5068376;28;20040;-85
2021/11/07 01:15:06;;;;;;;5.35;4.82;;;9.40;99.90;;;;;;5054203;28;20044;-84
2021/11/07 01:17:32;;;;;;;5.13;4.65;;;9.40;99.90;;;;;;5065299;28;20032;-89
2021/11/07 01:19:58;;;;;;;4.78;4.00;;;9.40;99.90;;;;;;5065260;28;20045;-86
2021/11/07 01:25:09;;;;;;;5.30;4.40;;;9.40;99.90;;;;;;5064881;28;20045;-86
2021/11/07 01:27:42;;;;;;;6.78;5.47;;;9.40;99.90;;;;;;5064998;28;20067;-86
2021/11/07 01:30:15;;;;;;;8.73;7.82;;;9.40;99.90;;;;;;5048084;28;20086;-86
2021/11/07 01:32:46;;;;;;;9.60;6.65;;;9.50;99.90;;;;;;5064765;28;20044;-86
2021/11/07 01:35:20;;;;;;;7.20;6.43;;;9.50;99.90;;;;;;5064931;28;20048;-87
2021/11/07 01:40:20;;;;;;;10.13;7.13;;;9.50;99.90;;;;;;5064654;28;20045;-86
2021/11/07 01:42:57;;;;;;;11.43;8.85;;;9.50;99.90;;;;;;5064468;28;20033;-85
2021/11/07 01:45:51;;;;;;;9.20;8.30;;;9.50;99.90;;;;;;5064567;28;20071;-86
2021/11/07 01:48:21;;;;;;;10.07;8.90;;;9.50;99.90;;;;;;4984743;28;20047;-85
2021/11/07 01:50:53;;;;;;;11.55;8.82;;;9.50;99.90;;;;;;4968398;28;20146;-86
2021/11/07 01:53:29;;;;;;;13.07;11.32;;;9.60;99.90;;;;;;4968683;28;20075;-88
2021/11/07 01:56:02;;;;;;;12.40;10.32;;;9.60;99.90;;;;;;4968584;28;20035;-84
2021/11/07 01:58:29;;;;;;;13.15;11.35;;;9.70;99.90;;;;;;4968597;28;20042;-87
2021/11/07 02:00:55;;;;;;;14.45;12.95;;;9.70;99.90;;;;;;4968463;28;20027;-88
2021/11/07 02:03:22;;;;;;;14.20;12.27;;;9.70;99.90;;;;;;4968367;28;20050;-88
2021/11/07 02:05:48;;;;;;;12.55;11.02;;;9.70;99.90;;;;;;4997187;28;20558;-87
2021/11/07 02:08:14;;;;;;;18.33;13.38;;;9.70;99.90;;;;;;4995143;28;20034;-89
2021/11/07 02:10:41;;;;;;;15.25;13.10;;;9.70;99.90;;;;;;4994977;28;20053;-89
2021/11/07 02:13:08;;;;;;;15.20;11.77;;;9.70;99.90;;;;;;4994915;28;20192;-88
2021/11/07 02:15:34;;;;;;;15.20;12.10;;;9.70;99.90;;;;;;4977197;28;20141;-87
2021/11/07 02:18:00;;;;;;;12.43;10.88;;;9.70;99.90;;;;;;4991730;28;20042;-88
2021/11/07 02:20:29;;;;;;;17.05;12.60;;;9.70;99.90;;;;;;4975541;28;20035;-88
2021/11/07 02:22:57;;;;;;;12.60;11.10;;;9.70;99.90;;;;;;4991774;28;20039;-89
2021/11/07 02:25:23;;;;;;;17.25;12.50;;;9.70;99.90;;;;;;5034060;28;20041;-88
2021/11/07 02:27:48;;;;;;;15.88;13.65;;;9.70;99.90;;;;;;5068507;28;20029;-89
2021/11/07 02:30:15;;;;;;;19.63;14.98;;;9.70;99.90;;;;;;5068136;28;20041;-86
2021/11/07 02:32:44;;;;;;;16.02;12.85;;;9.80;99.90;;;;;;5051587;28;20393;-89
2021/11/07 02:35:10;;;;;;;19.60;16.70;;;9.80;99.90;;;;;;5052426;28;20066;-91
2021/11/07 02:37:36;;;;;;;15.90;13.48;;;9.80;99.90;;;;;;5068126;28;20041;-88
2021/11/07 02:40:06;;;;;;;19.20;15.13;;;9.80;99.90;;;;;;5051542;28;20047;-86
2021/11/07 02:42:32;;;;;;;;;;;9.80;99.90;;;;;;5084935;28;20061;-90
2021/11/07 02:44:57;;;;;;;20.13;15.82;;;9.80;99.90;;;;;;5059717;28;19915;-86
2021/11/07 02:47:23;;;;;;;21.08;15.65;;;9.90;99.90;;;;;;5084145;28;20052;-90
2021/11/07 02:49:49;;;;;;;18.08;13.38;;;9.80;99.90;;;;;;5084805;28;20033;-89
2021/11/07 02:52:15;;;;;;;19.92;15.07;;;9.80;99.90;;;;;;5084436;28;20468;-88
2021/11/07 02:54:42;;;;;;;16.33;14.10;;;9.80;99.90;;;;;;5084547;28;20068;-89
2021/11/07 02:57:12;;;;;;;26.15;17.80;;;9.90;99.90;;;;;;5084276;28;20315;-92
2021/11/07 02:59:40;;;;;;;21.83;15.25;;;9.90;99.90;;;;;;5067648;28;20040;-91
2021/11/07 03:02:07;;;;;;;18.92;15.23;;;9.90;99.90;;;;;;5050701;28;20041;-89
2021/11/07 03:04:34;;;;;;;24.38;19.33;;;9.90;99.90;;;;;;5067490;28;20044;-90
2021/11/07 03:07:00;;;;;;;19.92;15.18;;;9.90;99.90;;;;;;5067308;28;20037;-88
2021/11/07 03:09:29;;;;;;;18.73;15.15;;;9.90;99.90;;;;;;5084182;28;20099;-88
2021/11/07 03:11:56;;;;;;;20.77;15.85;;;9.90;99.90;;;;;;5083854;28;20060;-87
2021/11/07 03:14:38;;;;;;;22.40;17.95;;;10.00;99.90;;;;;;5067441;28;20072;-88
2021/11/07 03:17:05;;;;;;;23.40;17.60;;;10.00;99.90;;;;;;5049129;28;20094;-88
2021/11/07 03:19:32;;;;;;;24.65;17.45;;;10.00;99.90;;;;;;5050765;28;20052;-87
2021/11/07 03:22:01;;;;;;;30.38;19.75;;;10.10;99.90;;;;;;5050405;28;20037;-86
2021/11/07 03:24:27;;;;;;;26.17;18.83;;;10.20;99.90;;;;;;5050354;28;20048;-88
2021/11/07 03:26:53;;;;;;;24.02;16.80;;;10.10;99.90;;;;;;5050759;28;20065;-87
2021/11/07 03:29:20;;;;;;;24.90;19.27;;;10.20;99.90;;;;;;5050581;28;20044;-86
2021/11/07 03:31:54;;;;;;;27.27;18.85;;;10.20;99.90;;;;;;5050339;28;20052;-90
2021/11/07 03:34:30;;;;;;;19.40;15.20;;;10.20;99.90;;;;;;5050157;28;20056;-88
2021/11/07 03:36:58;;;;;;;21.15;15.88;;;10.20;99.90;;;;;;5050227;28;20169;-89
2021/11/07 03:39:27;;;;;;;22.08;16.45;;;10.20;99.90;;;;;;5050186;28;20044;-89
2021/11/07 03:41:53;;;;;;;23.48;16.52;;;10.10;99.90;;;;;;5066412;28;20044;-88
2021/11/07 03:44:21;;;;;;;26.35;18.63;;;10.10;99.90;;;;;;5050338;28;20072;-88
2021/11/07 03:46:49;;;;;;;32.15;18.92;;;10.20;99.90;;;;;;5048142;28;20041;-88
2021/11/07 03:49:16;;;;;;;27.45;19.17;;;10.20;99.90;;;;;;5033690;28;20044;-88
2021/11/07 03:51:43;;;;;;;24.15;17.55;;;10.20;99.90;;;;;;5033441;28;20047;-90
2021/11/07 03:54:11;;;;;;;25.73;18.85;;;10.20;99.90;;;;;;5033411;28;20056;-88
2021/11/07 03:56:38;;;;;;;27.15;19.25;;;10.20;99.90;;;;;;5033405;28;20033;-87
2021/11/07 03:59:05;;;;;;;25.27;19.23;;;10.20;99.90;;;;;;5033599;28;20045;-88
2021/11/07 04:01:31;;;;;;;28.92;20.05;;;10.20;99.90;;;;;;5033112;28;20041;-88
2021/11/07 04:03:57;;;;;;;26.27;17.25;;;10.20;99.90;;;;;;5033422;28;20040;-88
2021/11/07 04:06:28;;;;;;;29.45;22.13;;;10.20;99.90;;;;;;5052166;28;20514;-88
2021/11/07 04:08:54;;;;;;;27.00;19.52;;;10.30;99.90;;;;;;5086557;28;20047;-86
2021/11/07 04:11:20;;;;;;;33.45;21.23;;;10.30;99.90;;;;;;5087447;28;20437;-87
2021/11/07 04:13:47;;;;;;;29.45;20.17;;;10.30;99.90;;;;;;5083015;28;20041;-87
2021/11/07 04:16:13;;;;;;;31.48;20.42;;;10.40;99.90;;;;;;5066477;28;20032;-88
2021/11/07 04:18:40;;;;;;;29.92;19.55;;;10.40;99.90;;;;;;5049566;28;20112;-87
2021/11/07 04:21:06;;;;;;;31.70;20.88;;;10.40;99.90;;;;;;5049610;28;20037;-89
2021/11/07 04:23:32;;;;;;;33.60;23.77;;;10.40;99.90;;;;;;5049269;28;20055;-88
2021/11/07 04:25:58;;;;;;;36.78;21.95;;;10.50;99.90;;;;;;5049412;28;20544;-89
2021/11/07 04:28:25;;;;;;;24.60;13.65;;;10.40;99.90;;;;;;5049074;28;20044;-90
2021/11/07 04:30:51;;;;;;;17.33;6.55;;;10.30;99.90;;;;;;5049489;28;20041;-88
2021/11/07 04:33:17;;;;;;;16.10;5.90;;;10.20;99.90;;;;;;5065598;28;20400;-87
2021/11/07 04:35:43;;;;;;;16.25;4.63;;;10.10;99.90;;;;;;5049417;28;20112;-86
2021/11/07 04:38:08;;;;;;;12.70;4.18;;;10.20;99.90;;;;;;5065877;28;20041;-87
2021/11/07 04:40:34;;;;;;;16.02;4.70;;;10.30;99.90;;;;;;5066037;28;20071;-87
2021/11/07 04:43:00;;;;;;;17.05;5.18;;;10.30;99.90;;;;;;5049058;28;20033;-89
2021/11/07 04:45:46;;;;;;;16.20;4.40;;;10.20;99.90;;;;;;5048887;28;20041;-86
2021/11/07 04:48:13;;;;;;;16.48;4.90;;;10.20;99.90;;;;;;5001473;28;20054;-89
2021/11/07 04:50:39;;;;;;;22.08;4.75;;;10.20;99.90;;;;;;4972600;28;20038;-88
2021/11/07 04:53:10;;;;;;;13.35;4.03;;;10.20;99.90;;;;;;4988735;28;20046;-89
2021/11/07 04:55:38;;;;;;;13.32;3.38;;;10.20;99.90;;;;;;4989111;28;20058;-89
2021/11/07 04:58:05;;;;;;;17.48;3.78;;;10.20;99.90;;;;;;4989116;28;20046;-89
2021/11/07 05:00:32;;;;;;;12.98;3.15;;;10.20;99.90;;;;;;4973783;28;20062;-88
2021/11/07 05:03:01;;;;;;;19.33;4.10;;;10.20;99.90;;;;;;4990765;28;20046;-90
2021/11/07 05:05:27;;;;;;;16.42;4.57;;;10.20;99.90;;;;;;4999678;28;20124;-88
2021/11/07 05:07:53;;;;;;;16.67;5.90;;;10.30;99.90;;;;;;4992128;28;20037;-90
2021/11/07 05:10:19;;;;;;;15.43;5.43;;;10.30;99.90;;;;;;5008439;28;20037;-89
2021/11/07 05:12:45;;;;;;;16.58;6.20;;;10.30;99.90;;;;;;5008024;28;20513;-89
2021/11/07 05:15:11;;;;;;;12.35;6.18;;;10.30;99.90;;;;;;5008391;28;20041;-89
2021/11/07 05:17:38;;;;;;;21.83;8.00;;;10.30;99.90;;;;;;5008192;28;20044;-91
2021/11/07 05:20:04;;;;;;;13.88;7.35;;;10.40;99.90;;;;;;5008010;28;20045;-89
2021/11/07 05:22:30;;;;;;;17.48;8.07;;;10.30;99.90;;;;;;5008081;28;20064;-88
2021/11/07 05:24:55;;;;;;;18.83;7.15;;;10.30;99.90;;;;;;5019833;28;20033;-88
2021/11/07 05:27:21;;;;;;;19.88;7.55;;;10.30;99.90;;;;;;5045082;28;20513;-89
2021/11/07 05:29:47;;;;;;;14.18;7.00;;;10.40;99.90;;;;;;5045489;28;20155;-90
2021/11/07 05:32:12;;;;;;;17.75;7.32;;;10.40;99.90;;;;;;5061688;28;20029;-89
2021/11/07 05:34:41;;;;;;;18.98;7.10;;;10.40;99.90;;;;;;5061766;28;20053;-90
2021/11/07 05:37:07;;;;;;;19.30;5.72;;;10.40;99.90;;;;;;5045252;28;20071;-90
2021/11/07 05:39:33;;;;;;;17.27;6.00;;;10.40;99.90;;;;;;5044827;28;20037;-89
2021/11/07 05:41:58;;;;;;;22.63;6.38;;;10.40;99.90;;;;;;5044822;28;20064;-89
2021/11/07 05:44:24;;;;;;;15.48;5.20;;;10.40;99.90;;;;;;5045294;28;20477;-89
2021/11/07 05:46:50;;;;;;;19.35;5.97;;;10.40;99.90;;;;;;5056277;23;20049;-89
2021/11/07 05:49:17;;;;;;;13.70;4.35;;;10.30;99.90;;;;;;5048541;28;20041;-88
2021/11/07 05:51:43;;;;;;;16.10;4.80;;;10.30;99.90;;;;;;5048219;28;20067;-87
2021/11/07 05:54:09;;;;;;;17.13;4.25;;;10.30;99.90;;;;;;5031965;28;20059;-88
2021/11/07 05:56:34;;;;;;;17.17;4.45;;;10.40;99.90;;;;;;5031856;28;20120;-88
2021/11/07 05:59:00;;;;;;;10.93;3.13;;;10.30;99.90;;;;;;5032055;28;20061;-88
2021/11/07 06:01:26;;;;;;;19.52;3.20;;;10.30;99.90;;;;;;5031859;28;20068;-87
2021/11/07 06:03:52;;;;;;;14.80;2.90;;;10.40;99.90;;;;;;5031963;28;20060;-89
2021/11/07 06:06:18;;;;;;;16.17;2.80;;;10.30;99.90;;;;;;5066390;28;20055;-88
2021/11/07 06:08:44;;;;;;;13.38;2.63;;;10.30;99.90;;;;;;5051523;28;20043;-88
2021/11/07 06:11:10;;;;;;;13.13;2.45;;;10.30;99.90;;;;;;5051569;28;20068;-88
2021/11/07 06:13:36;;;;;;;14.32;2.53;;;10.30;99.90;;;;;;5049515;28;20048;-88
2021/11/07 06:16:02;;;;;;;15.07;2.10;;;10.30;99.90;;;;;;5031885;28;20105;-88
2021/11/07 06:18:32;;;;;;;17.60;1.73;;;10.30;99.90;;;;;;5031641;28;20180;-88
2021/11/07 06:20:58;;;;;;;14.30;1.37;;;10.20;99.90;;;;;;5031342;28;20036;-88
2021/11/07 06:23:24;;;;;;;13.82;1.05;;;10.20;99.90;;;;;;5031364;28;20060;-87
2021/11/07 06:25:50;;;;;;;6.88;0.75;;;10.20;99.90;;;;;;5031508;28;20040;-89
2021/11/07 06:28:17;;;;;;;10.38;0.90;;;10.10;99.90;;;;;;5031526;28;20067;-87
2021/11/07 06:30:48;;;;;;;10.73;0.80;;;10.10;99.90;;;;;;5031426;28;20127;-89
2021/11/07 06:33:15;;;;;;;10.75;1.10;;;10.10;99.90;;;;;;5031308;28;20060;-89
2021/11/07 06:35:41;;;;;;;12.10;0.80;;;9.90;99.90;;;;;;5031198;28;20075;-88
2021/11/07 06:38:06;;;;;;;9.95;0.75;;;9.90;99.90;;;;;;5031424;28;20037;-89
2021/11/07 06:40:33;;;;;;;9.55;0.60;;;9.90;99.90;;;;;;5031236;28;20041;-86
2021/11/07 06:42:59;;;;;;;13.48;0.70;;;9.90;99.90;;;;;;5031329;28;20037;-89
2021/11/07 06:45:45;;;;;;;14.23;1.05;;;9.80;99.90;;;;;;5031065;28;20052;-89
2021/11/07 06:48:10;;;;;;;10.95;0.60;;;9.80;99.90;;;;;;4965676;28;20054;-87
2021/11/07 06:50:36;;;;;;;15.23;1.58;;;9.80;99.90;;;;;;4987454;28;20153;-88
2021/11/07 06:53:02;;;;;;;16.95;0.80;;;9.80;99.90;;;;;;4990794;28;20052;-90
2021/11/07 06:55:28;;;;;;;11.20;0.65;;;9.70;99.90;;;;;;4985737;28;20127;-90
2021/11/07 06:57:54;;;;;;;11.10;0.75;;;9.70;99.90;;;;;;4955628;28;20039;-91
2021/11/07 07:00:24;;;;;;;13.07;0.80;;;9.70;99.90;;;;;;4955700;28;20717;-90
2021/11/07 07:02:50;;;;;;;21.67;1.00;;;9.70;99.90;;;;;;4955536;28;20062;-89
2021/11/07 07:05:18;;;;;;;9.65;1.33;;;9.70;99.90;;;;;;4960812;28;20039;-91
2021/11/07 07:07:48;;;;;;;8.40;0.60;;;9.70;99.90;;;;;;4986895;28;20049;-92
2021/11/07 07:10:29;;;;;;;13.70;1.08;;;9.60;99.90;;;;;;4986551;28;20087;-91
2021/11/07 07:15:27;;;;;;;11.68;0.88;;;9.70;99.90;;;;;;5003228;28;20046;-88
2021/11/07 07:23:31;;;;;;;15.98;0.88;;;9.60;99.90;;;;;;5009373;28;20046;-91
2021/11/07 07:26:20;;;;;;;9.32;0.95;;;9.60;99.90;;;;;;5013384;28;20064;-91
2021/11/07 07:28:59;;;;;;;11.77;0.70;;;9.50;99.90;;;;;;5082666;28;20128;-91
2021/11/07 07:31:34;;;;;;;11.00;1.10;;;9.50;99.90;;;;;;5049805;28;20040;-88
2021/11/07 07:36:26;;;;;;;15.35;1.05;;;9.50;99.90;;;;;;5064937;28;20044;-89
2021/11/07 07:38:52;;;;;;;13.45;0.70;;;9.40;99.90;;;;;;5050330;28;20326;-89
2021/11/07 07:41:18;;;;;;;14.40;1.30;;;9.30;99.90;;;;;;5049752;28;20048;-90
2021/11/07 07:43:44;;;;;;;8.40;1.08;;;9.40;99.90;;;;;;5066507;28;20037;-90
2021/11/07 07:46:12;;;;;;;12.43;1.02;;;9.40;99.90;;;;;;5049440;28;20040;-88
2021/11/07 07:48:44;;;;;;;10.05;1.05;;;9.50;99.90;;;;;;5049525;28;20052;-89
2021/11/07 07:51:12;;;;;;;13.93;0.80;;;9.40;99.90;;;;;;5049322;28;20044;-88
2021/11/07 07:53:39;;;;;;;13.32;0.93;;;9.50;99.90;;;;;;5048885;28;20045;-88
2021/11/07 07:56:06;;;;;;;16.25;0.80;;;9.60;99.90;;;;;;5049440;28;20037;-86
2021/11/07 07:58:32;;;;;;;12.15;0.82;;;9.70;99.90;;;;;;5049685;28;20037;-87
2021/11/07 08:00:58;;;;;;;15.05;1.10;;;9.70;99.90;;;;;;5049342;28;20132;-88
2021/11/07 08:03:24;;;;;;;13.05;1.23;;;9.70;99.90;;;;;;5048413;28;20465;-88
2021/11/07 08:05:50;;;;;;;12.68;1.00;;;9.70;99.90;;;;;;5063329;28;20033;-88
2021/11/07 08:08:16;;;;;;;11.15;0.90;;;9.70;99.90;;;;;;5086057;28;20092;-88
2021/11/07 08:10:42;;;;;;;19.55;1.25;;;9.60;99.90;;;;;;5085848;28;20051;-88
2021/11/07 08:13:08;;;;;;;10.50;0.80;;;9.70;99.90;;;;;;5068961;28;20045;-89
2021/11/07 08:15:34;;;;;;;9.32;1.15;;;9.70;99.90;;;;;;5047414;28;20042;-87
2021/11/07 08:18:00;;;;;;;13.88;1.17;;;9.80;99.90;;;;;;5029353;28;20414;-89
2021/11/07 08:20:26;;;;;;;12.75;0.65;;;9.80;99.90;;;;;;5029100;28;20048;-87
2021/11/07 08:22:52;;;;;;;11.32;1.02;;;9.80;99.90;;;;;;5045842;28;20045;-88
2021/11/07 08:25:22;;;;;;;14.95;0.80;;;9.90;99.90;;;;;;5029080;28;20048;-90
2021/11/07 08:27:51;;;;;;;11.68;1.00;;;10.00;99.90;;;;;;5045891;28;20038;-89
2021/11/07 08:30:21;;;;;;;16.23;1.30;;;9.90;99.90;;;;;;5028988;28;20045;-88
2021/11/07 08:32:48;;;;;;;14.70;0.82;;;10.00;99.90;;;;;;5028845;28;20037;-88
2021/11/07 08:35:15;;;;;;;17.80;1.40;;;10.10;99.90;;;;;;5045253;28;20029;-87
2021/11/07 08:37:49;;;;;;;15.95;1.20;;;10.20;99.90;;;;;;5028917;28;20076;-86
2021/11/07 08:40:21;;;;;;;15.75;0.95;;;10.30;99.90;;;;;;5061853;28;20041;-87
2021/11/07 08:42:56;;;;;;;12.30;0.88;;;10.30;99.90;;;;;;5028863;28;20108;-90
2021/11/07 09:02:06;;;;;;;7.82;0.60;;;9.70;99.90;;;;;;5064551;28;20052;-90
2021/11/07 09:07:36;;;;;;;9.88;0.50;;;9.90;99.90;;;;;;5065186;28;20048;-90
2021/11/07 09:10:06;;;;;;;10.65;0.55;;;10.10;99.90;;;;;;5048355;28;20037;-89
2021/11/07 09:12:35;;;;;;;15.18;0.80;;;10.20;99.90;;;;;;5048122;28;20049;-90
2021/11/07 09:15:01;;;;;;;16.33;0.87;;;10.30;99.90;;;;;;5044716;28;20049;-88
2021/11/07 09:17:29;;;;;;;17.38;0.85;;;10.30;99.90;;;;;;5044731;28;20034;-88
2021/11/07 09:19:56;;;;;;;19.08;1.05;;;10.40;99.90;;;;;;5044625;28;20042;-86
2021/11/07 09:22:31;;;;;;;14.52;0.80;;;10.50;99.90;;;;;;5044358;28;20061;-87
2021/11/07 09:25:15;;;;;;;16.73;1.40;;;10.50;99.90;;;;;;5044357;28;20042;-88
2021/11/07 09:27:48;;;;;;;19.38;1.00;;;10.60;99.90;;;;;;5044541;28;20136;-88
2021/11/07 09:38:19;;;;;;;13.00;1.15;;;11.10;99.90;;;;;;5064411;28;20037;-89
2021/11/07 09:40:57;;;;;;;14.43;1.25;;;11.10;99.90;;;;;;5047676;28;20067;-90
2021/11/07 09:43:46;;;;;;;11.93;1.90;;;10.90;99.90;;;;;;5047589;28;20071;-88
2021/11/07 09:46:18;;;;;;;11.05;0.68;;;10.90;99.90;;;;;;5055384;28;20030;-91
2021/11/07 09:48:54;;;;;;;10.25;0.57;;;11.00;99.90;;;;;;5029682;28;20091;-90
2021/11/07 09:51:22;;;;;;;14.48;1.85;;;11.20;99.90;;;;;;5038581;28;20098;-86
2021/11/07 09:53:51;;;;;;;14.68;1.35;;;11.20;99.90;;;;;;5055481;28;20047;-88
2021/11/07 09:56:17;;;;;;;7.88;0.55;;;11.30;99.90;;;;;;5057910;28;20048;-88
2021/11/07 09:58:49;;;;;;;21.55;1.27;;;11.30;99.90;;;;;;5040592;28;20104;-86
2021/11/07 10:01:15;;;;;;;10.32;1.25;;;11.20;99.90;;;;;;5036182;28;20034;-87
2021/11/07 10:03:43;;;;;;;11.70;1.38;;;11.40;99.90;;;;;;5038405;28;20032;-88
2021/11/07 10:06:45;;;;;;;16.52;1.17;;;11.40;99.90;;;;;;5034576;28;20056;-88
2021/11/07 10:09:13;;;;;;;17.08;0.95;;;11.30;99.90;;;;;;5016419;28;20033;-88
2021/11/07 10:12:00;;;;;;;16.60;0.95;;;11.40;99.90;;;;;;5062589;28;20116;-88
2021/11/07 10:15:01;;;;;;;11.70;0.82;;;11.30;99.90;;;;;;5047389;28;20179;-88
2021/11/07 10:17:47;;;;;;;15.20;1.05;;;11.20;99.90;;;;;;5047076;28;20033;-87
2021/11/07 10:20:22;;;;;;;15.32;1.25;;;11.20;99.90;;;;;;5047201;28;20124;-87
2021/11/07 10:22:54;;;;;;;14.45;0.70;;;11.10;99.90;;;;;;5063458;28;20089;-88
2021/11/07 10:25:24;;;;;;;11.48;0.93;;;11.10;99.90;;;;;;5046995;28;20045;-86
2021/11/07 10:27:53;;;;;;;;;;;11.10;99.90;;;;;;5067869;28;20047;-90
2021/11/07 10:30:24;;;;;;;9.85;0.57;;;11.40;99.90;;;;;;5052374;28;19916;-89
2021/11/07 10:33:05;;;;;;;12.48;1.35;;;11.70;99.90;;;;;;5050703;28;20551;-89
2021/11/07 10:41:10;;;;;;;12.68;0.63;;;11.90;99.90;;;;;;5067607;28;20068;-89
2021/11/07 10:43:54;;;;;;;11.68;0.50;;;12.00;99.90;;;;;;5050879;28;20564;-90
2021/11/07 10:46:40;;;;;;;14.63;0.93;;;12.20;99.90;;;;;;5050605;28;20489;-87
2021/11/07 10:52:20;;;;;;;14.27;0.60;;;12.00;99.90;;;;;;5067138;28;20048;-89
2021/11/07 10:54:46;;;;;;;12.35;0.50;;;12.00;99.90;;;;;;5050430;28;20194;-89
2021/11/07 10:57:15;;;;;;;12.65;2.25;;;11.90;99.90;;;;;;5050287;28;20036;-86
2021/11/07 10:59:42;;;;;;;11.88;0.60;;;12.00;99.90;;;;;;5067256;28;20056;-86
2021/11/07 11:02:45;;;;;;;12.27;0.98;;;12.10;99.90;;;;;;5066785;28;20072;-87
2021/11/07 11:05:20;;;;;;;15.98;0.80;;;12.10;99.90;;;;;;5020814;28;20033;-85
2021/11/07 11:08:07;;;;;;;12.05;0.70;;;12.10;99.90;;;;;;5030289;28;20092;-88
2021/11/07 11:16:27;;;;;;;14.80;0.88;;;12.00;99.90;;;;;;5046558;28;20041;-85
2021/11/07 11:21:55;;;;;;;11.15;1.00;;;12.00;99.90;;;;;;5046524;28;20041;-89
2021/11/07 11:24:43;;;;;;;10.65;0.73;;;12.10;99.90;;;;;;5046724;28;20466;-88
2021/11/07 11:27:27;;;;;;;7.25;0.70;;;12.20;99.90;;;;;;5046418;28;20045;-86
2021/11/07 11:30:07;;;;;;;10.30;1.20;;;12.20;99.90;;;;;;5046689;28;20041;-89
2021/11/07 11:35:12;;;;;;;11.13;0.80;;;12.20;99.90;;;;;;5046437;28;20456;-86
2021/11/07 11:38:03;;;;;;;11.05;0.98;;;12.20;99.90;;;;;;5045515;28;20057;-86
2021/11/07 11:41:29;;;;;;;15.00;1.95;;;12.30;99.90;;;;;;5045973;28;20041;-88
2021/11/07 11:43:27;;;;;;;14.45;0.90;;;12.20;99.90;;;;;;5041489;28;20140;-88
2021/11/07 11:45:58;;;;;;;10.30;0.73;;;12.40;99.90;;;;;;5046160;28;20037;-87
2021/11/07 11:49:15;;;;;;;13.10;0.70;;;12.40;99.90;;;;;;5029270;28;20064;-85
2021/11/07 11:57:48;;;;;;;6.28;0.50;;;12.20;99.90;;;;;;5046154;28;20037;-88
2021/11/07 12:05:57;;;;;;;5.32;0.40;;;11.70;99.90;;;;;;5045592;28;20052;-88
2021/11/07 12:08:34;;;;;;;7.88;0.60;;;11.60;99.90;;;;;;5028994;28;20056;-88
2021/11/07 12:11:17;;;;;;;10.75;1.00;;;11.50;99.90;;;;;;5045575;28;20076;-84
2021/11/07 12:13:50;;;;;;;10.05;0.47;;;11.50;99.90;;;;;;5048000;28;20053;-87
2021/11/07 12:16:37;;;;;;;11.43;0.80;;;11.50;99.90;;;;;;5064406;28;20033;-86
2021/11/07 12:19:09;;;;;;;9.40;0.60;;;11.30;99.90;;;;;;5045055;28;20041;-85
2021/11/07 12:22:10;;;;;;;2.55;0.30;;;11.00;99.90;;;;;;5021412;28;20115;-86
2021/11/07 12:24:48;;;;;;;6.88;0.30;;;10.40;99.90;;;;;;5030340;28;20052;-86
2021/11/07 12:27:21;;;;;;;10.13;0.70;;;10.00;99.90;;;;;;5060557;28;20091;-89
2021/11/07 12:29:53;;;;;;;5.03;0.30;;;9.70;99.90;;;;;;5036911;28;20045;-89
2021/11/07 12:32:22;;;;;;;6.80;0.30;;;9.70;99.90;;;;;;5046412;28;20041;-88
2021/11/07 12:35:22;;;;;;;5.75;0.30;;;9.70;99.90;;;;;;5050573;28;20056;-86
2021/11/07 12:41:02;;;;;;;8.18;0.40;;;9.70;99.90;;;;;;5070695;28;19947;-90
2021/11/07 12:43:32;;;;;;;11.10;0.50;;;9.70;99.90;;;;;;5033908;28;20494;-88
2021/11/07 12:48:58;;;;;;;6.07;0.50;;;9.90;99.90;;;;;;5018226;28;20062;-88
2021/11/07 12:51:42;;;;;;;10.68;0.50;;;9.90;99.90;;;;;;5016010;28;20037;-87
2021/11/07 12:54:20;;;;;;;7.60;0.50;;;9.80;99.90;;;;;;5008291;28;20050;-86
2021/11/07 12:56:52;;;;;;;6.78;0.50;;;9.90;99.90;;;;;;5014726;28;20093;-87
2021/11/07 12:59:20;;;;;;;5.93;0.80;;;10.10;99.90;;;;;;5022807;28;20041;-84
2021/11/07 13:02:04;;;;;;;11.35;0.65;;;10.20;99.90;;;;;;5011102;28;20045;-85
2021/11/07 13:04:42;;;;;;;7.45;0.50;;;10.40;99.90;;;;;;5023368;28;20097;-88
2021/11/07 13:07:17;;;;;;;12.55;0.70;;;10.40;99.90;;;;;;5025421;28;20147;-86
2021/11/07 13:09:47;;;;;;;8.43;0.77;;;10.40;99.90;;;;;;5014508;28;20045;-88
2021/11/07 13:12:27;;;;;;;10.75;0.52;;;10.30;99.90;;;;;;5012611;28;20060;-86
2021/11/07 13:15:48;;;;;;;11.32;0.65;;;10.30;99.90;;;;;;5017488;28;20125;-88
2021/11/07 13:28:41;;;;;;;13.98;0.70;;;10.20;99.90;;;;;;5018686;28;20501;-84
2021/11/07 13:31:21;;;;;;;11.48;1.30;;;10.30;99.90;;;;;;5029002;28;20045;-86
2021/11/07 13:33:48;;;;;;;13.25;1.25;;;10.40;99.90;;;;;;5030202;28;20101;-86
2021/11/07 13:36:17;;;;;;;14.43;1.15;;;10.50;99.90;;;;;;5018822;28;20060;-87
2021/11/07 13:38:48;;;;;;;13.38;0.82;;;10.40;99.90;;;;;;5017245;28;20042;-86
2021/11/07 13:41:17;;;;;;;13.00;1.05;;;10.30;99.90;;;;;;5033163;28;20105;-85
2021/11/07 13:43:51;;;;;;;14.13;0.80;;;10.40;99.90;;;;;;5017150;28;20041;-87
2021/11/07 13:46:17;;;;;;;11.50;0.70;;;10.50;99.90;;;;;;5020612;28;20124;-85
2021/11/07 13:48:43;;;;;;;8.77;0.60;;;10.40;99.90;;;;;;5036561;28;20076;-86
2021/11/07 13:51:11;;;;;;;17.17;2.03;;;10.40;99.90;;;;;;5049345;28;20049;-86
2021/11/07 13:53:42;;;;;;;17.20;0.80;;;10.20;99.90;;;;;;5038936;28;20140;-87
2021/11/07 13:56:11;;;;;;;14.40;1.50;;;10.10;99.90;;;;;;5036342;28;20128;-85
2021/11/07 13:58:41;;;;;;;15.00;0.80;;;10.00;99.90;;;;;;5041375;28;20048;-85
2021/11/07 14:01:15;;;;;;;23.35;1.00;;;10.00;99.90;;;;;;5051545;28;20045;-86
2021/11/07 14:03:42;;;;;;;14.85;1.15;;;9.80;99.90;;;;;;5041354;28;20046;-87
2021/11/07 14:06:14;;;;;;;13.00;1.02;;;9.80;99.90;;;;;;5037295;28;20041;-86
2021/11/07 14:08:49;;;;;;;14.88;1.60;;;9.80;99.90;;;;;;5055980;28;20043;-84
2021/11/07 14:11:19;;;;;;;16.83;1.42;;;9.80;99.90;;;;;;5055454;28;20051;-85
2021/11/07 14:13:47;;;;;;;13.98;0.85;;;9.70;99.90;;;;;;5033231;28;20045;-88
2021/11/07 14:16:16;;;;;;;12.70;1.33;;;9.70;99.90;;;;;;5032658;28;20150;-86
2021/11/07 14:18:46;;;;;;;13.35;1.10;;;9.50;99.90;;;;;;5038351;28;20049;-86
2021/11/07 14:21:15;;;;;;;12.35;0.70;;;9.20;99.90;;;;;;5036604;28;20072;-86
2021/11/07 14:26:37;;;;;;;5.15;0.35;;;8.20;99.90;;;;;;5054799;28;20042;-88
2021/11/07 14:29:11;;;;;;;11.38;0.40;;;8.20;99.90;;;;;;5047575;28;20041;-86
2021/11/07 14:32:02;;;;;;;10.00;0.40;;;8.30;99.90;;;;;;5041589;28;20033;-86
2021/11/07 14:34:38;;;;;;;6.68;0.32;;;8.40;99.90;;;;;;5035785;28;20050;-86
2021/11/07 14:37:24;;;;;;;13.73;0.50;;;8.30;99.90;;;;;;5039371;28;20037;-85
2021/11/07 14:40:06;;;;;;;8.38;0.55;;;8.50;99.90;;;;;;5043834;28;20090;-87
2021/11/07 14:47:50;;;;;;;13.68;0.60;;;8.70;99.90;;;;;;5054588;28;20049;-86
2021/11/07 14:50:35;;;;;;;24.63;1.10;;;8.80;99.90;;;;;;5058244;28;20082;-86
2021/11/07 15:00:58;;;;;;;17.70;1.88;;;9.00;99.90;;;;;;5054142;28;20041;-86
2021/11/07 15:03:30;;;;;;;18.50;1.58;;;9.00;99.90;;;;;;5033465;28;20045;-86
2021/11/07 15:06:34;;;;;;;17.08;1.17;;;9.00;99.90;;;;;;5038555;28;20060;-87
2021/11/07 15:09:07;;;;;;;15.90;1.58;;;9.00;99.90;;;;;;5056578;28;20092;-86